Aérodrome :
LOGIN :

S'inscrire | Disclaimer

   EN    FR    IT 

 










Légende :    VFR   VFR Marginal   IFR   IFR Intensif   IFR Très Intensif
Visi : 
Plafond : 
>= 8 km
>= 3000ft
5 à 8 km
1000 à 3000 ft
1500m à 5 km
500 à 1000 ft
800 à 1500m
200 à 500 ft
< 800m
< 200 ft
Symboles :   Orages  Brouillard  Fortes neiges  Fortes précipitations  Vent > 20 kt
SIGMETs :   Divers  Orages  Givrage  Turbulence  Onde Orograph.  Cendres Volcan.







- Altitude de l'aérodrome : 978 ft
- Code IATA : LNZ


LOWL - Linz

DERNIER METAR :
  • 171020Z 30011KT 270V340 9999 FEW025 SCT032 BKN080 20/13 Q1017 NOSIG

METARs EXPIRÉS :
  • 170950Z 29009KT 9999 FEW025 SCT032 BKN080 20/13 Q1017 NOSIG
  • 170920Z 29008KT 9999 FEW028 SCT060 BKN080 20/13 Q1017 NOSIG
  • 170850Z 29011KT 9999 FEW028 SCT060 BKN080 19/13 Q1017 NOSIG
  • 170820Z 26007KT 9999 FEW025 BKN080 19/13 Q1017 NOSIG
  • 170750Z 26007KT 9999 FEW025 BKN080 19/13 Q1017 NOSIG

TAF TAF LOWL
Valide du 17 à 06h jusqu'au 18 à 06h UTC


170515Z 1706/1806 25006KT 9999 FEW040 BKN060 TX19/1712Z TN10/1805Z
TEMPO 1706/1709 29010KT -SHRA
TEMPO 1709/1716 29015KT FEW020 BKN035
Pas de NOTAMs connus pour ce terrain.



MET'MAP, la Météo Aéronautique d'un coup d'oeil ! - Copyright ORBIFLY Décembre 2007 - Disclaimer

ORBIFLY MET'MAP TEAM :

Programmation & Développement : Alexandra Zaïnal
Conception & Développement : Baudouin d'Aumeries
Co-Programmation & Développement : Marc-Olivier Méhu
Soutien technique & logistique : Manuel Goepfert

Contact : metmap@orbifly.com




SOURCES & CREDITS :

   NOAA